sensor_id;sensor_type;location;lat;lon;timestamp;pressure;altitude;pressure_sealevel;temperature;humidity
22964;BME280;11648;49.306;6.934;2023-03-20T00:02:05;98698.44;;;13.10;80.34
22964;BME280;11648;49.306;6.934;2023-03-20T00:04:33;98698.44;;;13.07;81.02
22964;BME280;11648;49.306;6.934;2023-03-20T00:07:00;98697.75;;;12.96;80.99
22964;BME280;11648;49.306;6.934;2023-03-20T00:09:27;98700.06;;;13.15;80.36
22964;BME280;11648;49.306;6.934;2023-03-20T00:11:54;98706.09;;;13.25;79.68
22964;BME280;11648;49.306;6.934;2023-03-20T00:14:22;98698.38;;;13.11;80.44
22964;BME280;11648;49.306;6.934;2023-03-20T00:16:51;98701.97;;;13.07;80.28
22964;BME280;11648;49.306;6.934;2023-03-20T00:19:25;98701.72;;;13.22;79.89
22964;BME280;11648;49.306;6.934;2023-03-20T00:21:54;98697.31;;;13.23;80.23
22964;BME280;11648;49.306;6.934;2023-03-20T00:24:22;98692.34;;;13.54;79.22
22964;BME280;11648;49.306;6.934;2023-03-20T00:26:50;98695.88;;;13.51;78.87
22964;BME280;11648;49.306;6.934;2023-03-20T00:29:25;98694.06;;;13.04;80.80
22964;BME280;11648;49.306;6.934;2023-03-20T00:31:54;98699.16;;;13.18;80.21
22964;BME280;11648;49.306;6.934;2023-03-20T00:34:25;98691.13;;;13.22;79.82
22964;BME280;11648;49.306;6.934;2023-03-20T00:36:55;98688.34;;;13.30;79.87
22964;BME280;11648;49.306;6.934;2023-03-20T00:39:22;98688.41;;;13.27;80.02
22964;BME280;11648;49.306;6.934;2023-03-20T00:41:57;98701.88;;;13.13;80.60
22964;BME280;11648;49.306;6.934;2023-03-20T00:44:35;98706.97;;;13.25;80.46
22964;BME280;11648;49.306;6.934;2023-03-20T00:47:31;98699.75;;;13.33;79.40
22964;BME280;11648;49.306;6.934;2023-03-20T00:50:09;98704.16;;;13.34;79.72
22964;BME280;11648;49.306;6.934;2023-03-20T00:52:40;98699.81;;;13.30;79.84
22964;BME280;11648;49.306;6.934;2023-03-20T00:55:07;98704.28;;;13.28;79.66
22964;BME280;11648;49.306;6.934;2023-03-20T00:58:00;98700.75;;;13.28;79.84
22964;BME280;11648;49.306;6.934;2023-03-20T01:02:59;98700.63;;;13.35;79.25
22964;BME280;11648;49.306;6.934;2023-03-20T01:05:26;98702.72;;;13.17;80.24
22964;BME280;11648;49.306;6.934;2023-03-20T01:07:54;98698.09;;;13.28;79.97
22964;BME280;11648;49.306;6.934;2023-03-20T01:10:28;98705.31;;;13.18;79.82
22964;BME280;11648;49.306;6.934;2023-03-20T01:12:59;98710.38;;;13.32;80.04
22964;BME280;11648;49.306;6.934;2023-03-20T01:15:30;98716.56;;;13.31;79.81
22964;BME280;11648;49.306;6.934;2023-03-20T01:17:57;98719.81;;;13.47;79.38
22964;BME280;11648;49.306;6.934;2023-03-20T01:20:26;98717.72;;;13.64;78.61
22964;BME280;11648;49.306;6.934;2023-03-20T01:22:53;98717.78;;;13.59;78.41
22964;BME280;11648;49.306;6.934;2023-03-20T01:25:21;98723.16;;;13.56;78.76
22964;BME280;11648;49.306;6.934;2023-03-20T01:27:50;98726.88;;;13.46;78.91
22964;BME280;11648;49.306;6.934;2023-03-20T01:30:23;98727.38;;;13.16;80.08
22964;BME280;11648;49.306;6.934;2023-03-20T01:32:51;98735.19;;;13.23;79.99
22964;BME280;11648;49.306;6.934;2023-03-20T01:35:24;98740.91;;;13.50;78.91
22964;BME280;11648;49.306;6.934;2023-03-20T01:37:52;98745.28;;;13.51;79.22
22964;BME280;11648;49.306;6.934;2023-03-20T01:40:30;98733.88;;;13.47;78.67
22964;BME280;11648;49.306;6.934;2023-03-20T01:43:00;98736.69;;;13.40;79.42
22964;BME280;11648;49.306;6.934;2023-03-20T01:45:33;98739.22;;;13.46;78.94
22964;BME280;11648;49.306;6.934;2023-03-20T01:48:13;98747.06;;;13.50;78.62
22964;BME280;11648;49.306;6.934;2023-03-20T01:50:41;98747.88;;;13.54;78.32
22964;BME280;11648;49.306;6.934;2023-03-20T01:53:22;98748.09;;;13.40;79.56
22964;BME280;11648;49.306;6.934;2023-03-20T01:55:56;98748.97;;;13.41;79.02
22964;BME280;11648;49.306;6.934;2023-03-20T01:58:36;98750.72;;;13.43;79.20
22964;BME280;11648;49.306;6.934;2023-03-20T02:01:07;98754.22;;;13.44;79.08
22964;BME280;11648;49.306;6.934;2023-03-20T02:03:34;98755.72;;;13.58;78.20
22964;BME280;11648;49.306;6.934;2023-03-20T02:06:13;98756.72;;;13.53;78.62
22964;BME280;11648;49.306;6.934;2023-03-20T02:08:58;98762.06;;;13.48;79.35
22964;BME280;11648;49.306;6.934;2023-03-20T02:11:26;98757.69;;;13.47;79.00
22964;BME280;11648;49.306;6.934;2023-03-20T02:13:56;98754.38;;;13.34;79.20
22964;BME280;11648;49.306;6.934;2023-03-20T02:16:26;98754.25;;;13.42;79.19
22964;BME280;11648;49.306;6.934;2023-03-20T02:19:28;98754.28;;;13.41;79.22
22964;BME280;11648;49.306;6.934;2023-03-20T02:30:22;98746.53;;;13.30;78.60
22964;BME280;11648;49.306;6.934;2023-03-20T02:41:25;98742.88;;;13.37;78.97
22964;BME280;11648;49.306;6.934;2023-03-20T02:50:50;98727.88;;;13.38;79.15
22964;BME280;11648;49.306;6.934;2023-03-20T02:58:41;98726.94;;;13.43;79.04
22964;BME280;11648;49.306;6.934;2023-03-20T03:01:18;98727.06;;;13.34;78.88
22964;BME280;11648;49.306;6.934;2023-03-20T03:03:50;98721.41;;;13.03;79.99
22964;BME280;11648;49.306;6.934;2023-03-20T03:06:24;98719.13;;;13.34;79.13
22964;BME280;11648;49.306;6.934;2023-03-20T03:08:57;98719.50;;;13.13;79.96
22964;BME280;11648;49.306;6.934;2023-03-20T03:11:29;98728.63;;;13.46;78.68
22964;BME280;11648;49.306;6.934;2023-03-20T03:13:57;98732.72;;;13.63;78.32
22964;BME280;11648;49.306;6.934;2023-03-20T03:16:43;98736.75;;;13.35;78.94
22964;BME280;11648;49.306;6.934;2023-03-20T03:19:17;98740.16;;;13.40;79.07
22964;BME280;11648;49.306;6.934;2023-03-20T03:21:46;98750.41;;;13.60;78.29
22964;BME280;11648;49.306;6.934;2023-03-20T03:24:35;98757.59;;;13.53;78.88
22964;BME280;11648;49.306;6.934;2023-03-20T03:27:16;98756.00;;;13.43;79.12
22964;BME280;11648;49.306;6.934;2023-03-20T03:29:48;98758.72;;;13.39;80.46
22964;BME280;11648;49.306;6.934;2023-03-20T03:32:24;98743.81;;;13.34;80.64
22964;BME280;11648;49.306;6.934;2023-03-20T03:34:52;98733.91;;;13.46;79.81
22964;BME280;11648;49.306;6.934;2023-03-20T03:37:28;98729.69;;;13.35;80.00
22964;BME280;11648;49.306;6.934;2023-03-20T03:40:34;98720.09;;;13.30;80.22
22964;BME280;11648;49.306;6.934;2023-03-20T03:43:09;98740.03;;;13.49;79.88
22964;BME280;11648;49.306;6.934;2023-03-20T03:45:43;98740.75;;;13.57;79.63
22964;BME280;11648;49.306;6.934;2023-03-20T03:48:16;98742.41;;;13.64;79.05
22964;BME280;11648;49.306;6.934;2023-03-20T03:50:57;98739.56;;;13.73;78.32
22964;BME280;11648;49.306;6.934;2023-03-20T03:53:30;98742.53;;;13.55;79.18
22964;BME280;11648;49.306;6.934;2023-03-20T03:56:01;98746.25;;;13.47;79.48
22964;BME280;11648;49.306;6.934;2023-03-20T03:58:32;98754.41;;;13.80;78.49
22964;BME280;11648;49.306;6.934;2023-03-20T04:01:02;98749.31;;;13.71;78.38
22964;BME280;11648;49.306;6.934;2023-03-20T04:03:31;98750.69;;;13.91;78.18
22964;BME280;11648;49.306;6.934;2023-03-20T04:06:02;98753.47;;;13.84;78.29
22964;BME280;11648;49.306;6.934;2023-03-20T04:08:30;98757.31;;;13.68;78.23
22964;BME280;11648;49.306;6.934;2023-03-20T04:10:58;98754.50;;;13.76;77.88
22964;BME280;11648;49.306;6.934;2023-03-20T04:13:25;98753.31;;;13.46;78.71
22964;BME280;11648;49.306;6.934;2023-03-20T04:15:51;98756.72;;;13.53;78.83
22964;BME280;11648;49.306;6.934;2023-03-20T04:18:19;98757.25;;;13.71;78.25
22964;BME280;11648;49.306;6.934;2023-03-20T04:20:47;98750.41;;;13.61;78.13
22964;BME280;11648;49.306;6.934;2023-03-20T04:23:15;98747.41;;;13.30;79.62
22964;BME280;11648;49.306;6.934;2023-03-20T04:25:42;98743.09;;;13.25;79.49
22964;BME280;11648;49.306;6.934;2023-03-20T04:28:09;98741.06;;;13.41;79.19
22964;BME280;11648;49.306;6.934;2023-03-20T04:30:54;98751.69;;;13.38;79.35
22964;BME280;11648;49.306;6.934;2023-03-20T04:33:51;98748.22;;;13.34;79.04
22964;BME280;11648;49.306;6.934;2023-03-20T04:36:32;98754.66;;;13.19;79.54
22964;BME280;11648;49.306;6.934;2023-03-20T04:38:58;98754.34;;;13.38;79.19
22964;BME280;11648;49.306;6.934;2023-03-20T04:41:25;98756.78;;;13.48;78.76
22964;BME280;11648;49.306;6.934;2023-03-20T04:43:55;98761.06;;;13.55;78.03
22964;BME280;11648;49.306;6.934;2023-03-20T04:46:22;98758.66;;;13.43;78.68
22964;BME280;11648;49.306;6.934;2023-03-20T04:48:49;98755.31;;;13.32;79.15
22964;BME280;11648;49.306;6.934;2023-03-20T04:51:16;98759.81;;;13.27;79.46
22964;BME280;11648;49.306;6.934;2023-03-20T04:53:47;98761.56;;;13.28;79.26
22964;BME280;11648;49.306;6.934;2023-03-20T04:56:14;98765.03;;;13.30;79.22
22964;BME280;11648;49.306;6.934;2023-03-20T04:58:41;98762.94;;;13.49;78.35
22964;BME280;11648;49.306;6.934;2023-03-20T05:01:08;98773.34;;;13.59;78.07
22964;BME280;11648;49.306;6.934;2023-03-20T05:03:35;98777.81;;;13.57;78.02
22964;BME280;11648;49.306;6.934;2023-03-20T05:06:02;98777.31;;;13.34;78.60
22964;BME280;11648;49.306;6.934;2023-03-20T05:08:29;98790.69;;;13.25;79.63
22964;BME280;11648;49.306;6.934;2023-03-20T05:10:59;98795.19;;;13.18;80.04
22964;BME280;11648;49.306;6.934;2023-03-20T05:13:44;98796.16;;;13.13;79.26
22964;BME280;11648;49.306;6.934;2023-03-20T05:16:26;98798.00;;;13.05;79.55
22964;BME280;11648;49.306;6.934;2023-03-20T05:19:02;98799.88;;;13.00;79.80
22964;BME280;11648;49.306;6.934;2023-03-20T05:21:35;98802.41;;;13.06;79.56
22964;BME280;11648;49.306;6.934;2023-03-20T05:24:25;98806.81;;;13.07;78.98
22964;BME280;11648;49.306;6.934;2023-03-20T05:27:11;98811.22;;;13.05;79.61
22964;BME280;11648;49.306;6.934;2023-03-20T05:29:56;98817.31;;;13.14;79.05
22964;BME280;11648;49.306;6.934;2023-03-20T05:32:42;98819.44;;;12.86;79.45
22964;BME280;11648;49.306;6.934;2023-03-20T05:35:27;98810.44;;;13.00;78.88
22964;BME280;11648;49.306;6.934;2023-03-20T05:38:20;98812.97;;;13.10;78.17
22964;BME280;11648;49.306;6.934;2023-03-20T05:41:23;98808.31;;;12.63;79.20
22964;BME280;11648;49.306;6.934;2023-03-20T05:44:21;98810.13;;;12.60;78.66
22964;BME280;11648;49.306;6.934;2023-03-20T05:47:08;98823.09;;;12.78;78.11
22964;BME280;11648;49.306;6.934;2023-03-20T05:49:56;98825.66;;;12.82;77.26
22964;BME280;11648;49.306;6.934;2023-03-20T05:52:29;98826.53;;;12.83;77.50
22964;BME280;11648;49.306;6.934;2023-03-20T05:55:14;98833.56;;;12.85;77.69
22964;BME280;11648;49.306;6.934;2023-03-20T05:57:54;98839.72;;;12.83;77.29
22964;BME280;11648;49.306;6.934;2023-03-20T06:00:34;98837.19;;;12.75;76.95
22964;BME280;11648;49.306;6.934;2023-03-20T06:03:36;98835.28;;;12.86;75.90
22964;BME280;11648;49.306;6.934;2023-03-20T06:06:10;98837.34;;;12.66;75.85
22964;BME280;11648;49.306;6.934;2023-03-20T06:08:37;98833.06;;;12.55;76.23
22964;BME280;11648;49.306;6.934;2023-03-20T06:11:05;98833.13;;;12.50;75.93
22964;BME280;11648;49.306;6.934;2023-03-20T06:13:35;98830.94;;;12.82;75.23
22964;BME280;11648;49.306;6.934;2023-03-20T06:16:02;98837.91;;;12.88;74.11
22964;BME280;11648;49.306;6.934;2023-03-20T06:18:29;98825.84;;;12.70;74.53
22964;BME280;11648;49.306;6.934;2023-03-20T06:20:57;98816.94;;;12.76;74.09
22964;BME280;11648;49.306;6.934;2023-03-20T06:23:27;98816.19;;;12.66;73.60
22964;BME280;11648;49.306;6.934;2023-03-20T06:25:53;98822.50;;;12.55;73.55
22964;BME280;11648;49.306;6.934;2023-03-20T06:28:20;98833.88;;;12.61;73.34
22964;BME280;11648;49.306;6.934;2023-03-20T06:30:54;98837.44;;;12.60;72.66
22964;BME280;11648;49.306;6.934;2023-03-20T06:33:22;98841.94;;;12.51;72.60
22964;BME280;11648;49.306;6.934;2023-03-20T06:35:55;98841.13;;;12.46;72.72
22964;BME280;11648;49.306;6.934;2023-03-20T06:38:24;98839.94;;;12.69;71.31
22964;BME280;11648;49.306;6.934;2023-03-20T06:40:51;98840.75;;;12.73;71.39
22964;BME280;11648;49.306;6.934;2023-03-20T06:43:18;98845.22;;;12.71;71.10
22964;BME280;11648;49.306;6.934;2023-03-20T06:45:50;98849.53;;;12.76;70.94
22964;BME280;11648;49.306;6.934;2023-03-20T06:48:25;98855.53;;;12.87;69.89
22964;BME280;11648;49.306;6.934;2023-03-20T06:50:53;98841.81;;;13.25;68.43
22964;BME280;11648;49.306;6.934;2023-03-20T06:53:23;98847.50;;;14.04;65.78
22964;BME280;11648;49.306;6.934;2023-03-20T06:55:55;98851.72;;;15.00;62.36
22964;BME280;11648;49.306;6.934;2023-03-20T06:58:22;98842.53;;;16.20;57.95
22964;BME280;11648;49.306;6.934;2023-03-20T07:00:50;98842.78;;;16.74;56.13
22964;BME280;11648;49.306;6.934;2023-03-20T07:03:19;98858.34;;;16.57;56.38
22964;BME280;11648;49.306;6.934;2023-03-20T07:05:47;98858.50;;;16.51;56.39
22964;BME280;11648;49.306;6.934;2023-03-20T07:08:15;98851.69;;;15.76;58.12
22964;BME280;11648;49.306;6.934;2023-03-20T07:10:42;98861.41;;;15.41;59.67
22964;BME280;11648;49.306;6.934;2023-03-20T07:13:11;98860.34;;;15.46;60.13
22964;BME280;11648;49.306;6.934;2023-03-20T07:15:39;98855.06;;;15.46;60.10
22964;BME280;11648;49.306;6.934;2023-03-20T07:18:24;98848.34;;;15.31;60.50
22964;BME280;11648;49.306;6.934;2023-03-20T07:20:51;98854.94;;;15.52;59.93
22964;BME280;11648;49.306;6.934;2023-03-20T07:23:19;98851.66;;;16.43;58.33
22964;BME280;11648;49.306;6.934;2023-03-20T07:25:46;98852.13;;;15.21;60.49
22964;BME280;11648;49.306;6.934;2023-03-20T07:28:16;98864.28;;;14.92;61.68
22964;BME280;11648;49.306;6.934;2023-03-20T07:30:49;98865.75;;;14.65;62.52
22964;BME280;11648;49.306;6.934;2023-03-20T07:33:16;98868.72;;;14.50;63.34
22964;BME280;11648;49.306;6.934;2023-03-20T07:35:44;98861.66;;;14.49;63.29
22964;BME280;11648;49.306;6.934;2023-03-20T07:38:11;98865.31;;;14.42;63.32
22964;BME280;11648;49.306;6.934;2023-03-20T07:40:48;98857.88;;;14.60;62.91
22964;BME280;11648;49.306;6.934;2023-03-20T07:43:16;98857.69;;;15.09;61.42
22964;BME280;11648;49.306;6.934;2023-03-20T07:46:01;98870.28;;;15.00;61.21
22964;BME280;11648;49.306;6.934;2023-03-20T07:48:28;98870.94;;;15.11;60.85
22964;BME280;11648;49.306;6.934;2023-03-20T07:50:55;98879.63;;;15.16;60.77
22964;BME280;11648;49.306;6.934;2023-03-20T07:53:22;98879.41;;;15.65;59.65
22964;BME280;11648;49.306;6.934;2023-03-20T07:55:49;98881.56;;;16.82;56.96
22964;BME280;11648;49.306;6.934;2023-03-20T07:58:16;98856.72;;;18.68;52.00
22964;BME280;11648;49.306;6.934;2023-03-20T08:00:43;98845.88;;;19.64;48.56
22964;BME280;11648;49.306;6.934;2023-03-20T08:03:09;98840.50;;;20.26;46.26
22964;BME280;11648;49.306;6.934;2023-03-20T08:05:36;98842.16;;;19.46;47.11
22964;BME280;11648;49.306;6.934;2023-03-20T08:08:04;98864.13;;;18.85;48.50
22964;BME280;11648;49.306;6.934;2023-03-20T08:10:31;98875.84;;;18.31;50.00
22964;BME280;11648;49.306;6.934;2023-03-20T08:12:58;98873.75;;;18.39;49.87
22964;BME280;11648;49.306;6.934;2023-03-20T08:15:24;98873.75;;;17.63;51.00
22964;BME280;11648;49.306;6.934;2023-03-20T08:17:51;98885.50;;;16.36;53.62
22964;BME280;11648;49.306;6.934;2023-03-20T08:20:18;98886.97;;;16.46;53.86
22964;BME280;11648;49.306;6.934;2023-03-20T08:22:45;98893.34;;;16.73;53.88
22964;BME280;11648;49.306;6.934;2023-03-20T08:25:13;98891.69;;;16.69;54.11
22964;BME280;11648;49.306;6.934;2023-03-20T08:27:40;98897.47;;;16.85;53.33
22964;BME280;11648;49.306;6.934;2023-03-20T08:30:07;98901.63;;;16.93;53.65
22964;BME280;11648;49.306;6.934;2023-03-20T08:32:35;98897.94;;;16.97;53.81
22964;BME280;11648;49.306;6.934;2023-03-20T08:35:02;98895.00;;;16.12;54.17
22964;BME280;11648;49.306;6.934;2023-03-20T08:37:28;98913.59;;;16.12;55.94
22964;BME280;11648;49.306;6.934;2023-03-20T08:39:55;98920.09;;;16.01;55.19
22964;BME280;11648;49.306;6.934;2023-03-20T08:42:21;98912.84;;;16.07;54.68
22964;BME280;11648;49.306;6.934;2023-03-20T08:44:48;98916.84;;;15.88;55.58
22964;BME280;11648;49.306;6.934;2023-03-20T08:47:15;98921.81;;;15.66;56.11
22964;BME280;11648;49.306;6.934;2023-03-20T08:49:42;98922.13;;;15.54;55.86
22964;BME280;11648;49.306;6.934;2023-03-20T08:52:09;98923.50;;;15.70;55.23
22964;BME280;11648;49.306;6.934;2023-03-20T08:54:35;98923.47;;;15.33;54.84
22964;BME280;11648;49.306;6.934;2023-03-20T08:57:02;98915.13;;;15.87;54.67
22964;BME280;11648;49.306;6.934;2023-03-20T08:59:29;98917.97;;;16.13;52.86
22964;BME280;11648;49.306;6.934;2023-03-20T09:01:56;98913.53;;;16.48;51.99
22964;BME280;11648;49.306;6.934;2023-03-20T09:04:23;98914.78;;;16.67;51.07
22964;BME280;11648;49.306;6.934;2023-03-20T09:06:51;98896.75;;;17.64;49.27
22964;BME280;11648;49.306;6.934;2023-03-20T09:09:17;98892.97;;;17.71;48.08
22964;BME280;11648;49.306;6.934;2023-03-20T09:11:46;98894.41;;;18.34;46.83
22964;BME280;11648;49.306;6.934;2023-03-20T09:14:13;98888.59;;;18.96;45.00
22964;BME280;11648;49.306;6.934;2023-03-20T09:16:40;98881.44;;;20.08;42.90
22964;BME280;11648;49.306;6.934;2023-03-20T09:19:07;98874.31;;;20.69;41.26
22964;BME280;11648;49.306;6.934;2023-03-20T09:21:34;98877.69;;;21.30;40.05
22964;BME280;11648;49.306;6.934;2023-03-20T09:24:01;98882.22;;;21.09;40.39
22964;BME280;11648;49.306;6.934;2023-03-20T09:26:27;98864.34;;;22.36;38.19
22964;BME280;11648;49.306;6.934;2023-03-20T09:28:54;98863.88;;;21.94;36.85
22964;BME280;11648;49.306;6.934;2023-03-20T09:31:21;98871.69;;;21.44;38.12
22964;BME280;11648;49.306;6.934;2023-03-20T09:33:48;98873.91;;;21.34;38.53
22964;BME280;11648;49.306;6.934;2023-03-20T09:36:15;98890.03;;;20.36;40.43
22964;BME280;11648;49.306;6.934;2023-03-20T09:38:42;98893.28;;;20.63;38.78
22964;BME280;11648;49.306;6.934;2023-03-20T09:41:25;98892.25;;;20.65;38.70
22964;BME280;11648;49.306;6.934;2023-03-20T09:47:15;98877.94;;;22.33;34.94
22964;BME280;11648;49.306;6.934;2023-03-20T09:52:34;98862.75;;;25.53;31.38
22964;BME280;11648;49.306;6.934;2023-03-20T09:55:14;98867.81;;;24.59;31.54
22964;BME280;11648;49.306;6.934;2023-03-20T09:57:44;98876.06;;;25.00;31.61
22964;BME280;11648;49.306;6.934;2023-03-20T10:00:14;98882.56;;;24.82;32.20
22964;BME280;11648;49.306;6.934;2023-03-20T10:07:55;98902.72;;;22.55;36.14
22964;BME280;11648;49.306;6.934;2023-03-20T10:13:42;98902.03;;;21.26;35.91
22964;BME280;11648;49.306;6.934;2023-03-20T10:16:20;98918.97;;;21.26;37.28
22964;BME280;11648;49.306;6.934;2023-03-20T10:19:06;98908.81;;;20.75;37.51
22964;BME280;11648;49.306;6.934;2023-03-20T10:21:42;98918.03;;;21.07;37.92
22964;BME280;11648;49.306;6.934;2023-03-20T10:26:48;98918.41;;;19.97;38.94
22964;BME280;11648;49.306;6.934;2023-03-20T10:32:21;98918.41;;;19.97;39.54
22964;BME280;11648;49.306;6.934;2023-03-20T10:37:42;98909.94;;;20.49;38.33
22964;BME280;11648;49.306;6.934;2023-03-20T10:40:20;98909.00;;;20.30;38.51
22964;BME280;11648;49.306;6.934;2023-03-20T10:42:50;98903.94;;;20.64;37.64
22964;BME280;11648;49.306;6.934;2023-03-20T10:45:28;98908.59;;;20.80;37.66
22964;BME280;11648;49.306;6.934;2023-03-20T10:47:58;98913.38;;;20.33;38.34
22964;BME280;11648;49.306;6.934;2023-03-20T10:50:39;98908.34;;;20.03;38.74
22964;BME280;11648;49.306;6.934;2023-03-20T10:53:07;98910.91;;;18.93;39.50
22964;BME280;11648;49.306;6.934;2023-03-20T10:55:38;98918.69;;;18.76;40.49
22964;BME280;11648;49.306;6.934;2023-03-20T10:58:16;98907.72;;;18.84;40.13
22964;BME280;11648;49.306;6.934;2023-03-20T11:00:45;98898.31;;;18.73;39.98
22964;BME280;11648;49.306;6.934;2023-03-20T11:03:22;98898.50;;;19.39;39.38
22964;BME280;11648;49.306;6.934;2023-03-20T11:05:53;98901.13;;;18.94;39.42
22964;BME280;11648;49.306;6.934;2023-03-20T11:08:38;98888.34;;;19.92;38.79
22964;BME280;11648;49.306;6.934;2023-03-20T11:11:05;98884.59;;;20.58;37.81
22964;BME280;11648;49.306;6.934;2023-03-20T11:13:40;98881.97;;;19.94;38.24
22964;BME280;11648;49.306;6.934;2023-03-20T11:16:32;98882.50;;;20.04;38.65
22964;BME280;11648;49.306;6.934;2023-03-20T11:19:05;98877.66;;;19.48;38.34
22964;BME280;11648;49.306;6.934;2023-03-20T11:21:35;98888.66;;;19.17;38.01
22964;BME280;11648;49.306;6.934;2023-03-20T11:24:40;98880.53;;;18.49;37.97
22964;BME280;11648;49.306;6.934;2023-03-20T11:27:34;98895.97;;;17.89;38.65
22964;BME280;11648;49.306;6.934;2023-03-20T11:30:03;98888.44;;;18.01;38.80
22964;BME280;11648;49.306;6.934;2023-03-20T11:32:33;98892.88;;;18.01;39.63
22964;BME280;11648;49.306;6.934;2023-03-20T11:35:30;98891.38;;;18.69;39.75
22964;BME280;11648;49.306;6.934;2023-03-20T11:38:19;98887.31;;;18.83;39.11
22964;BME280;11648;49.306;6.934;2023-03-20T11:40:48;98892.41;;;19.12;39.26
22964;BME280;11648;49.306;6.934;2023-03-20T11:43:23;98888.16;;;19.30;38.80
22964;BME280;11648;49.306;6.934;2023-03-20T11:45:54;98889.16;;;19.50;38.79
22964;BME280;11648;49.306;6.934;2023-03-20T11:48:37;98870.84;;;20.47;36.37
22964;BME280;11648;49.306;6.934;2023-03-20T11:51:07;98869.91;;;20.06;36.07
22964;BME280;11648;49.306;6.934;2023-03-20T11:56:25;98884.00;;;18.53;39.02
22964;BME280;11648;49.306;6.934;2023-03-20T12:01:40;98869.84;;;19.20;37.97
22964;BME280;11648;49.306;6.934;2023-03-20T12:04:16;98869.50;;;18.83;38.67
22964;BME280;11648;49.306;6.934;2023-03-20T12:06:46;98882.47;;;18.69;38.79
22964;BME280;11648;49.306;6.934;2023-03-20T12:09:28;98873.19;;;18.31;40.03
22964;BME280;11648;49.306;6.934;2023-03-20T12:12:33;98868.59;;;17.85;40.47
22964;BME280;11648;49.306;6.934;2023-03-20T12:36:43;98859.66;;;17.60;40.80
22964;BME280;11648;49.306;6.934;2023-03-20T12:39:14;98854.63;;;17.77;40.89
22964;BME280;11648;49.306;6.934;2023-03-20T12:52:54;98841.06;;;17.85;40.36
22964;BME280;11648;49.306;6.934;2023-03-20T13:01:28;98841.53;;;17.15;39.73
22964;BME280;11648;49.306;6.934;2023-03-20T13:06:44;98850.97;;;16.98;40.32
22964;BME280;11648;49.306;6.934;2023-03-20T13:09:52;98852.34;;;16.49;41.68
22964;BME280;11648;49.306;6.934;2023-03-20T13:17:51;98847.91;;;16.50;41.43
22964;BME280;11648;49.306;6.934;2023-03-20T13:20:28;98841.66;;;16.52;41.33
22964;BME280;11648;49.306;6.934;2023-03-20T13:27:01;98844.81;;;16.66;41.26
22964;BME280;11648;49.306;6.934;2023-03-20T13:29:38;98835.88;;;16.37;41.41
22964;BME280;11648;49.306;6.934;2023-03-20T13:34:49;98822.28;;;17.07;41.05
22964;BME280;11648;49.306;6.934;2023-03-20T13:37:30;98819.59;;;16.18;41.02
22964;BME280;11648;49.306;6.934;2023-03-20T13:43:17;98825.72;;;16.82;40.88
22964;BME280;11648;49.306;6.934;2023-03-20T13:45:46;98818.66;;;16.50;41.52
22964;BME280;11648;49.306;6.934;2023-03-20T13:54:00;98819.28;;;17.18;41.30
22964;BME280;11648;49.306;6.934;2023-03-20T13:59:29;98808.38;;;17.25;41.97
22964;BME280;11648;49.306;6.934;2023-03-20T14:05:00;98807.38;;;16.42;42.44
22964;BME280;11648;49.306;6.934;2023-03-20T14:09:56;98804.38;;;16.54;42.43
22964;BME280;11648;49.306;6.934;2023-03-20T14:12:30;98799.78;;;16.90;42.17
22964;BME280;11648;49.306;6.934;2023-03-20T14:14:59;98794.34;;;16.93;41.97
22964;BME280;11648;49.306;6.934;2023-03-20T14:17:28;98799.34;;;17.03;41.43
22964;BME280;11648;49.306;6.934;2023-03-20T14:19:56;98798.00;;;17.18;42.01
22964;BME280;11648;49.306;6.934;2023-03-20T14:22:33;98783.38;;;17.59;40.92
22964;BME280;11648;49.306;6.934;2023-03-20T14:25:19;98778.88;;;17.33;40.89
22964;BME280;11648;49.306;6.934;2023-03-20T14:27:55;98776.50;;;17.50;40.32
22964;BME280;11648;49.306;6.934;2023-03-20T14:33:05;98776.75;;;16.89;41.78
22964;BME280;11648;49.306;6.934;2023-03-20T14:36:24;98784.53;;;16.36;42.34
22964;BME280;11648;49.306;6.934;2023-03-20T14:41:10;98784.50;;;16.38;42.59
22964;BME280;11648;49.306;6.934;2023-03-20T14:46:50;98774.06;;;16.61;42.38
22964;BME280;11648;49.306;6.934;2023-03-20T14:49:35;98765.06;;;16.94;41.63
22964;BME280;11648;49.306;6.934;2023-03-20T14:52:29;98750.41;;;17.09;41.43
22964;BME280;11648;49.306;6.934;2023-03-20T14:55:14;98749.16;;;17.20;41.70
22964;BME280;11648;49.306;6.934;2023-03-20T14:57:42;98752.47;;;17.27;41.44
22964;BME280;11648;49.306;6.934;2023-03-20T15:00:26;98751.53;;;17.02;41.67
22964;BME280;11648;49.306;6.934;2023-03-20T15:03:14;98753.50;;;17.49;41.93
22964;BME280;11648;49.306;6.934;2023-03-20T15:05:42;98746.22;;;17.28;41.18
22964;BME280;11648;49.306;6.934;2023-03-20T15:08:18;98744.06;;;17.39;41.20
22964;BME280;11648;49.306;6.934;2023-03-20T15:10:52;98746.59;;;16.90;42.66
22964;BME280;11648;49.306;6.934;2023-03-20T15:13:21;98749.22;;;16.91;42.07
22964;BME280;11648;49.306;6.934;2023-03-20T15:18:41;98749.34;;;16.87;41.94
22964;BME280;11648;49.306;6.934;2023-03-20T15:21:20;98747.47;;;16.90;42.00
22964;BME280;11648;49.306;6.934;2023-03-20T15:23:48;98739.78;;;17.09;42.32
22964;BME280;11648;49.306;6.934;2023-03-20T15:26:18;98732.84;;;17.03;42.22
22964;BME280;11648;49.306;6.934;2023-03-20T15:28:47;98736.69;;;17.21;41.96
22964;BME280;11648;49.306;6.934;2023-03-20T15:31:25;98730.00;;;17.09;42.30
22964;BME280;11648;49.306;6.934;2023-03-20T15:33:53;98743.88;;;16.34;43.24
22964;BME280;11648;49.306;6.934;2023-03-20T15:36:26;98746.47;;;16.05;43.63
22964;BME280;11648;49.306;6.934;2023-03-20T15:39:04;98743.00;;;16.34;43.20
22964;BME280;11648;49.306;6.934;2023-03-20T15:41:33;98737.75;;;16.30;43.78
22964;BME280;11648;49.306;6.934;2023-03-20T15:44:20;98740.34;;;16.32;43.31
22964;BME280;11648;49.306;6.934;2023-03-20T15:49:18;98735.84;;;16.65;43.21
22964;BME280;11648;49.306;6.934;2023-03-20T15:51:45;98737.16;;;16.50;43.80
22964;BME280;11648;49.306;6.934;2023-03-20T15:54:15;98739.38;;;16.35;43.30
22964;BME280;11648;49.306;6.934;2023-03-20T15:56:44;98735.81;;;16.66;42.68